Time;durP1;ratioP1;P1;durP2;ratioP2;P2;SDS_P1;SDS_P2;PMS_P1;PMS_P2;Temp;Humidity;BMP_temperature;BMP_pressure;BME280_temperature;BME280_humidity;BME280_pressure;Samples;Min_cycle;Max_cycle;Signal;HPM_P1;HPM_P2
2024/02/01 00:00:55;;;;;;;20.73;15.47;;;10.90;99.90;;;;;;5013665;28;20530;-68
2024/02/01 00:03:20;;;;;;;24.07;16.57;;;10.80;99.90;;;;;;5014268;28;20228;-69
2024/02/01 00:05:46;;;;;;;18.43;16.30;;;10.80;99.90;;;;;;5012611;28;20180;-69
2024/02/01 00:08:11;;;;;;;18.97;15.60;;;10.80;99.90;;;;;;5014022;28;20745;-69
2024/02/01 00:10:37;;;;;;;18.67;16.27;;;10.80;99.90;;;;;;5014462;28;20624;-68
2024/02/01 00:13:03;;;;;;;18.60;15.33;;;10.70;99.90;;;;;;5014092;28;20184;-68
2024/02/01 00:15:29;;;;;;;18.90;15.90;;;10.80;99.90;;;;;;5017170;28;20189;-68
2024/02/01 00:17:55;;;;;;;21.57;15.50;;;10.80;99.90;;;;;;5018268;28;20213;-68
2024/02/01 00:20:20;;;;;;;21.63;16.43;;;10.70;99.90;;;;;;5016791;28;21130;-68
2024/02/01 00:22:46;;;;;;;21.60;15.70;;;10.80;99.90;;;;;;5019144;28;20230;-68
2024/02/01 00:25:11;;;;;;;19.53;12.93;;;10.80;99.90;;;;;;5017513;28;20204;-69
2024/02/01 00:27:37;;;;;;;17.63;13.90;;;10.90;99.90;;;;;;5015676;28;20185;-69
2024/02/01 00:30:03;;;;;;;17.70;13.20;;;10.70;99.90;;;;;;5017047;28;20193;-69
2024/02/01 00:32:30;;;;;;;19.20;13.47;;;10.60;99.90;;;;;;5020247;28;20188;-69
2024/02/01 00:34:56;;;;;;;19.10;13.60;;;10.60;99.90;;;;;;5011841;28;20459;-69
2024/02/01 00:37:21;;;;;;;14.37;11.30;;;10.60;99.90;;;;;;5014193;28;20446;-69
2024/02/01 00:39:47;;;;;;;19.20;13.10;;;10.60;99.90;;;;;;5014520;28;20772;-69
2024/02/01 00:42:12;;;;;;;18.93;11.37;;;10.60;99.90;;;;;;5014588;28;20208;-69
2024/02/01 00:44:38;;;;;;;17.40;12.00;;;10.60;99.90;;;;;;5013546;28;20265;-68
2024/02/01 00:47:04;;;;;;;12.40;11.10;;;10.70;99.90;;;;;;5014031;28;20176;-68
2024/02/01 00:49:30;;;;;;;15.30;11.73;;;10.70;99.90;;;;;;5017624;28;20185;-68
2024/02/01 00:51:58;;;;;;;17.37;11.17;;;10.60;99.90;;;;;;5011308;28;20438;-68
2024/02/01 00:54:23;;;;;;;14.73;10.73;;;10.60;99.90;;;;;;5014785;28;20832;-68
2024/02/01 00:56:49;;;;;;;13.10;10.30;;;10.70;99.90;;;;;;5014881;28;20420;-70
2024/02/01 00:59:15;;;;;;;13.13;9.67;;;10.60;99.90;;;;;;5015264;28;20208;-69
2024/02/01 01:01:41;;;;;;;16.67;9.87;;;10.70;99.90;;;;;;5019713;28;20176;-69
2024/02/01 01:04:06;;;;;;;10.70;9.10;;;10.70;99.90;;;;;;5014336;28;20274;-69
2024/02/01 01:06:32;;;;;;;12.20;8.97;;;10.70;99.90;;;;;;5016815;28;20314;-69
2024/02/01 01:08:58;;;;;;;9.07;7.73;;;10.70;99.90;;;;;;5015147;28;20545;-69
2024/02/01 01:11:25;;;;;;;10.90;6.90;;;10.80;99.90;;;;;;5014969;28;20651;-69
2024/02/01 01:13:51;;;;;;;13.40;7.00;;;10.80;99.90;;;;;;5014163;28;20477;-69
2024/02/01 01:16:17;;;;;;;9.50;6.50;;;10.60;99.90;;;;;;5014644;28;20957;-69
2024/02/01 01:18:43;;;;;;;8.67;6.50;;;10.70;99.90;;;;;;5018954;28;20490;-69
2024/02/01 01:21:08;;;;;;;8.37;6.00;;;10.70;99.90;;;;;;5015876;28;20185;-69
2024/02/01 01:23:34;;;;;;;7.60;6.23;;;10.80;99.90;;;;;;5017103;28;20596;-69
2024/02/01 01:25:59;;;;;;;8.77;6.03;;;10.80;99.90;;;;;;5018155;28;20208;-69
2024/02/01 01:28:25;;;;;;;8.73;6.40;;;10.80;99.90;;;;;;5014041;28;20217;-69
2024/02/01 01:30:50;;;;;;;6.23;4.33;;;10.90;99.90;;;;;;5016745;28;20216;-69
2024/02/01 01:33:16;;;;;;;7.53;5.30;;;10.90;99.90;;;;;;5011562;28;20181;-69
2024/02/01 01:35:42;;;;;;;6.60;5.47;;;10.90;99.90;;;;;;5013620;28;20203;-68
2024/02/01 01:38:07;;;;;;;8.93;5.47;;;10.90;99.90;;;;;;5013768;28;20188;-69
2024/02/01 01:40:33;;;;;;;7.67;5.80;;;10.80;99.90;;;;;;5012064;28;20301;-69
2024/02/01 01:42:58;;;;;;;8.43;6.47;;;10.80;99.90;;;;;;5015886;28;20276;-69
2024/02/01 01:45:24;;;;;;;7.93;5.40;;;10.70;99.90;;;;;;5008938;28;20761;-69
2024/02/01 01:47:50;;;;;;;8.33;6.03;;;10.70;99.90;;;;;;5015784;28;20177;-69
2024/02/01 01:50:15;;;;;;;7.80;5.60;;;10.80;99.90;;;;;;5014702;28;20541;-69
2024/02/01 01:52:44;;;;;;;7.37;6.00;;;10.80;99.90;;;;;;5014618;28;20933;-69
2024/02/01 01:55:10;;;;;;;9.53;6.20;;;10.80;99.90;;;;;;5008572;28;20546;-69
2024/02/01 01:57:36;;;;;;;9.37;5.53;;;10.80;99.90;;;;;;5011989;28;20512;-69
2024/02/01 02:00:02;;;;;;;8.93;6.17;;;10.80;99.90;;;;;;5011013;28;20479;-69
2024/02/01 02:02:30;;;;;;;9.80;5.07;;;10.90;99.90;;;;;;5009289;28;20194;-69
2024/02/01 02:04:57;;;;;;;8.30;5.97;;;10.90;99.90;;;;;;5020677;28;20924;-69
2024/02/01 02:07:22;;;;;;;6.57;4.97;;;10.90;99.90;;;;;;5006638;28;20404;-69
2024/02/01 02:09:48;;;;;;;11.43;5.27;;;10.80;99.90;;;;;;5011977;28;20521;-69
2024/02/01 02:12:15;;;;;;;7.57;5.40;;;10.90;99.90;;;;;;5015771;28;20199;-70
2024/02/01 02:14:40;;;;;;;8.37;5.73;;;11.00;99.90;;;;;;5015630;28;20459;-70
2024/02/01 02:17:06;;;;;;;7.83;5.33;;;10.90;99.90;;;;;;5015107;28;20971;-69
2024/02/01 02:19:31;;;;;;;5.90;4.93;;;10.90;99.90;;;;;;5013923;28;20222;-69
2024/02/01 02:21:57;;;;;;;7.33;5.30;;;10.90;99.90;;;;;;5014741;28;20226;-69
2024/02/01 02:24:24;;;;;;;7.20;4.90;;;10.90;99.90;;;;;;5019275;28;20326;-69
2024/02/01 02:26:50;;;;;;;9.70;5.60;;;10.90;99.90;;;;;;5011690;28;20467;-69
2024/02/01 02:29:16;;;;;;;8.17;5.50;;;11.00;99.90;;;;;;5014520;28;20870;-69
2024/02/01 02:31:46;;;;;;;6.77;4.80;;;10.80;99.90;;;;;;5012881;28;20448;-69
2024/02/01 02:34:12;;;;;;;7.10;4.67;;;10.70;99.90;;;;;;5015806;28;20443;-69
2024/02/01 02:36:38;;;;;;;5.47;4.33;;;10.80;99.90;;;;;;5011664;28;20444;-69
2024/02/01 02:39:04;;;;;;;5.60;4.30;;;10.70;99.90;;;;;;5018291;28;20557;-69
2024/02/01 02:41:30;;;;;;;6.53;5.00;;;10.60;99.90;;;;;;5012674;28;20478;-70
2024/02/01 02:43:57;;;;;;;8.07;5.07;;;10.70;99.90;;;;;;5018555;28;20471;-70
2024/02/01 02:46:25;;;;;;;6.43;4.50;;;10.70;99.90;;;;;;5011051;28;20208;-69
2024/02/01 02:48:51;;;;;;;6.77;4.43;;;10.70;99.90;;;;;;5013347;28;20483;-69
2024/02/01 02:51:16;;;;;;;6.53;5.60;;;10.70;99.90;;;;;;5009350;28;20468;-69
2024/02/01 02:53:42;;;;;;;5.23;4.23;;;10.70;99.90;;;;;;5011930;28;20280;-69
2024/02/01 02:56:08;;;;;;;6.93;5.30;;;10.60;99.90;;;;;;5016428;28;20189;-69
2024/02/01 02:58:38;;;;;;;8.70;5.30;;;10.60;99.90;;;;;;5010602;28;20270;-69
2024/02/01 03:01:08;;;;;;;9.53;4.97;;;10.60;99.90;;;;;;5001067;28;20431;-69
2024/02/01 03:03:39;;;;;;;5.60;5.00;;;10.70;99.90;;;;;;5014245;28;21003;-69
2024/02/01 03:06:06;;;;;;;10.97;5.67;;;10.70;99.90;;;;;;5012802;28;20462;-69
2024/02/01 03:08:31;;;;;;;6.80;4.40;;;10.70;99.90;;;;;;5009409;28;20466;-69
2024/02/01 03:10:57;;;;;;;8.83;4.50;;;10.70;99.90;;;;;;5015268;28;20443;-69
2024/02/01 03:13:22;;;;;;;8.33;4.40;;;10.70;99.90;;;;;;5013399;28;20200;-69
2024/02/01 03:15:48;;;;;;;5.80;4.50;;;10.70;99.90;;;;;;5012925;28;20185;-69
2024/02/01 03:18:13;;;;;;;7.37;4.23;;;10.70;99.90;;;;;;5013924;28;20803;-69
2024/02/01 03:20:39;;;;;;;5.60;3.90;;;10.70;99.90;;;;;;5014467;28;20536;-69
2024/02/01 03:23:06;;;;;;;9.43;4.50;;;10.70;99.90;;;;;;5012061;28;20634;-69
2024/02/01 03:25:32;;;;;;;5.80;3.97;;;10.70;99.90;;;;;;5015157;28;20173;-69
2024/02/01 03:28:04;;;;;;;7.47;4.47;;;10.70;99.90;;;;;;5014490;28;20967;-69
2024/02/01 03:30:37;;;;;;;4.83;4.07;;;10.70;99.90;;;;;;5008146;28;20181;-69
2024/02/01 03:33:05;;;;;;;6.43;3.63;;;10.80;99.90;;;;;;5010618;28;20923;-69
2024/02/01 03:35:31;;;;;;;9.43;3.63;;;10.80;99.90;;;;;;5018894;28;20914;-69
2024/02/01 03:37:59;;;;;;;6.63;3.83;;;10.80;99.90;;;;;;5015998;28;20420;-69
2024/02/01 03:40:24;;;;;;;4.53;3.50;;;10.80;99.90;;;;;;5008478;28;20451;-68
2024/02/01 03:42:50;;;;;;;4.57;3.33;;;10.80;99.90;;;;;;5011113;28;20430;-69
2024/02/01 03:45:15;;;;;;;4.97;3.40;;;10.90;99.90;;;;;;5012372;28;20669;-69
2024/02/01 03:47:41;;;;;;;4.37;3.17;;;10.80;99.90;;;;;;5013368;28;20585;-69
2024/02/01 03:50:08;;;;;;;4.73;3.43;;;10.90;99.90;;;;;;5017663;28;20255;-69
2024/02/01 03:52:38;;;;;;;4.60;3.93;;;10.90;99.90;;;;;;5006715;28;20218;-69
2024/02/01 03:55:16;;;;;;;4.53;3.43;;;10.90;99.90;;;;;;5012318;28;20439;-70
2024/02/01 03:57:45;;;;;;;5.10;3.20;;;11.00;99.90;;;;;;5010762;28;20446;-70
2024/02/01 04:00:30;;;;;;;4.13;2.90;;;10.90;99.90;;;;;;5014854;28;20669;-70
2024/02/01 04:02:56;;;;;;;4.43;3.27;;;10.80;99.90;;;;;;5013061;28;20431;-69
2024/02/01 04:05:24;;;;;;;3.97;2.93;;;10.80;99.90;;;;;;5011842;28;20435;-69
2024/02/01 04:07:50;;;;;;;4.87;3.77;;;10.80;99.90;;;;;;5018522;28;20781;-69
2024/02/01 04:10:15;;;;;;;4.83;3.10;;;10.80;99.90;;;;;;5013547;28;20435;-69
2024/02/01 04:12:41;;;;;;;5.00;3.50;;;10.80;99.90;;;;;;5014168;28;20270;-69
2024/02/01 04:15:07;;;;;;;4.03;3.30;;;10.80;99.90;;;;;;5016981;28;20196;-69
2024/02/01 04:17:32;;;;;;;4.73;3.30;;;10.70;99.90;;;;;;5013675;28;20611;-69
2024/02/01 04:19:58;;;;;;;7.50;3.70;;;10.70;99.90;;;;;;5011975;28;20478;-69
2024/02/01 04:22:25;;;;;;;3.53;3.00;;;10.70;99.90;;;;;;5008224;28;20190;-69
2024/02/01 04:24:50;;;;;;;8.33;3.80;;;10.70;99.90;;;;;;5015063;28;20654;-69
2024/02/01 04:27:18;;;;;;;6.80;3.43;;;10.80;99.90;;;;;;5008391;28;20882;-68
2024/02/01 04:29:44;;;;;;;5.13;3.67;;;10.70;99.90;;;;;;5015635;28;20275;-69
2024/02/01 04:32:10;;;;;;;4.67;3.57;;;10.80;99.90;;;;;;5012065;28;20443;-69
2024/02/01 04:34:38;;;;;;;4.00;3.37;;;10.80;99.90;;;;;;5011589;28;20494;-69
2024/02/01 04:37:05;;;;;;;5.33;3.93;;;10.70;99.90;;;;;;5014619;28;20183;-69
2024/02/01 04:39:33;;;;;;;4.00;3.13;;;10.70;99.90;;;;;;5012583;28;20467;-69
2024/02/01 04:42:14;;;;;;;3.63;2.90;;;10.70;99.90;;;;;;5010106;28;20443;-69
2024/02/01 04:44:48;;;;;;;5.33;3.50;;;10.70;99.90;;;;;;5015455;28;20477;-69
2024/02/01 04:47:14;;;;;;;5.80;3.30;;;10.70;99.90;;;;;;5014887;28;20438;-69
2024/02/01 04:49:39;;;;;;;6.30;3.40;;;10.70;99.90;;;;;;5005959;28;21073;-69
2024/02/01 04:52:08;;;;;;;5.57;3.53;;;10.60;99.90;;;;;;5010887;28;20192;-69
2024/02/01 04:54:34;;;;;;;6.73;3.60;;;10.60;99.90;;;;;;5016830;28;20898;-69
2024/02/01 04:57:03;;;;;;;5.63;3.60;;;10.60;99.90;;;;;;5013414;28;20515;-69
2024/02/01 04:59:29;;;;;;;5.33;3.73;;;10.60;99.90;;;;;;5018985;28;20282;-69
2024/02/01 05:01:55;;;;;;;8.33;4.10;;;10.70;99.90;;;;;;5017421;28;20905;-69
2024/02/01 05:04:21;;;;;;;5.00;3.10;;;10.50;99.90;;;;;;5022739;28;20205;-69
2024/02/01 05:06:47;;;;;;;4.30;2.93;;;10.70;99.90;;;;;;5019758;28;20695;-69
2024/02/01 05:09:25;;;;;;;6.47;4.10;;;10.70;99.90;;;;;;5020216;28;20180;-69
2024/02/01 05:11:51;;;;;;;5.13;3.37;;;10.70;99.90;;;;;;5018952;28;20916;-69
2024/02/01 05:14:19;;;;;;;5.53;3.57;;;10.60;99.90;;;;;;5012976;28;20432;-69
2024/02/01 05:16:45;;;;;;;5.90;3.83;;;10.60;99.90;;;;;;5012714;28;20545;-69
2024/02/01 05:19:10;;;;;;;4.93;3.43;;;10.60;99.90;;;;;;5022324;28;20589;-69
2024/02/01 05:21:36;;;;;;;7.33;4.33;;;10.50;99.90;;;;;;5008285;28;20983;-69
2024/02/01 05:24:01;;;;;;;5.77;3.70;;;10.50;99.90;;;;;;5014924;28;20207;-69
2024/02/01 05:26:27;;;;;;;5.47;3.40;;;10.50;99.90;;;;;;5010491;28;20255;-68
2024/02/01 05:28:53;;;;;;;4.50;3.43;;;10.40;99.90;;;;;;5020935;28;20254;-69
2024/02/01 05:31:21;;;;;;;7.23;3.83;;;10.40;99.90;;;;;;5019174;28;20614;-69
2024/02/01 05:33:47;;;;;;;8.07;4.43;;;10.40;99.90;;;;;;5020252;28;20246;-68
2024/02/01 05:36:13;;;;;;;5.87;3.77;;;10.40;99.90;;;;;;5016867;28;20507;-68
2024/02/01 05:38:38;;;;;;;7.23;4.47;;;10.30;99.90;;;;;;5013428;28;20566;-68
2024/02/01 05:41:11;;;;;;;7.10;3.80;;;10.30;99.90;;;;;;5018621;28;20191;-68
2024/02/01 05:43:40;;;;;;;6.70;4.43;;;10.20;99.90;;;;;;5015035;28;20216;-68
2024/02/01 05:46:14;;;;;;;4.20;3.80;;;10.10;99.90;;;;;;5013673;28;20424;-68
2024/02/01 05:48:43;;;;;;;7.07;4.53;;;10.10;99.90;;;;;;5012821;28;20442;-68
2024/02/01 05:51:09;;;;;;;5.00;3.73;;;10.10;99.90;;;;;;5012422;28;20486;-68
2024/02/01 05:53:35;;;;;;;5.80;4.73;;;10.00;99.90;;;;;;5015870;28;20454;-68
2024/02/01 05:56:01;;;;;;;7.10;4.07;;;10.00;99.90;;;;;;5019012;28;20446;-68
2024/02/01 05:58:29;;;;;;;4.43;3.70;;;9.90;99.90;;;;;;5009058;28;20212;-68
2024/02/01 06:00:57;;;;;;;5.77;4.50;;;9.90;99.90;;;;;;5019871;28;20212;-69
2024/02/01 06:03:23;;;;;;;5.10;3.70;;;10.00;99.90;;;;;;5016169;28;20451;-69
2024/02/01 06:05:49;;;;;;;7.27;3.80;;;9.90;99.90;;;;;;5018271;28;20797;-68
2024/02/01 06:08:18;;;;;;;5.60;3.80;;;9.90;99.90;;;;;;5013705;28;20624;-68
2024/02/01 06:10:44;;;;;;;7.60;4.63;;;9.90;99.90;;;;;;5013229;28;20434;-68
2024/02/01 06:13:11;;;;;;;8.37;4.30;;;9.90;99.90;;;;;;5022803;28;20423;-69
2024/02/01 06:15:37;;;;;;;4.70;4.00;;;9.90;99.90;;;;;;5018219;28;20242;-68
2024/02/01 06:18:03;;;;;;;7.60;4.60;;;9.80;99.90;;;;;;5017521;28;20592;-69
2024/02/01 06:20:29;;;;;;;6.87;4.43;;;9.90;99.90;;;;;;5020866;28;20494;-68
2024/02/01 06:22:54;;;;;;;7.33;5.03;;;9.90;99.90;;;;;;5020464;28;20416;-68
2024/02/01 06:25:20;;;;;;;11.43;5.80;;;9.80;99.90;;;;;;5024579;28;20208;-68
2024/02/01 06:27:47;;;;;;;8.40;5.00;;;9.90;99.90;;;;;;5013368;28;20192;-68
2024/02/01 06:30:13;;;;;;;7.07;4.77;;;9.90;99.90;;;;;;5016821;28;20262;-68
2024/02/01 06:32:40;;;;;;;9.97;4.90;;;9.90;99.90;;;;;;5015393;28;20478;-68
2024/02/01 06:35:13;;;;;;;8.97;5.60;;;9.90;99.90;;;;;;5009383;28;20291;-68
2024/02/01 06:37:42;;;;;;;4.77;4.30;;;9.90;99.90;;;;;;5013583;28;20585;-68
2024/02/01 06:45:45;;;;;;;8.57;4.70;;;9.90;99.90;;;;;;5006868;28;20447;-68
2024/02/01 06:48:14;;;;;;;5.07;4.57;;;9.90;99.90;;;;;;5017726;28;20478;-68
2024/02/01 06:50:48;;;;;;;7.80;5.20;;;9.90;99.90;;;;;;5015919;28;20428;-68
2024/02/01 06:53:20;;;;;;;7.27;4.70;;;9.90;99.90;;;;;;5020025;28;20836;-68
2024/02/01 06:56:18;;;;;;;9.50;5.47;;;9.80;99.90;;;;;;5020124;28;20533;-68
2024/02/01 06:58:47;;;;;;;5.97;3.97;;;9.80;99.90;;;;;;5006969;28;20465;-69
2024/02/01 07:01:24;;;;;;;6.80;4.63;;;9.80;99.90;;;;;;5018209;28;20796;-68
2024/02/01 07:03:57;;;;;;;7.00;4.83;;;9.80;99.90;;;;;;5024289;28;20462;-68
2024/02/01 07:06:38;;;;;;;8.00;5.50;;;9.70;99.90;;;;;;5019216;28;20426;-68
2024/02/01 07:09:17;;;;;;;8.50;5.53;;;9.60;99.90;;;;;;5016558;28;20440;-68
2024/02/01 07:11:59;;;;;;;7.23;6.07;;;9.60;99.90;;;;;;5013482;28;20419;-68
2024/02/01 07:14:36;;;;;;;9.13;6.10;;;9.70;99.90;;;;;;5020014;28;20439;-68
2024/02/01 07:17:26;;;;;;;8.23;5.87;;;9.70;99.90;;;;;;5011375;28;20461;-69
2024/02/01 07:19:53;;;;;;;9.20;5.70;;;9.70;99.90;;;;;;5014127;28;20470;-69
2024/02/01 07:23:00;;;;;;;8.70;6.20;;;9.70;99.90;;;;;;5011678;28;20435;-68
2024/02/01 07:25:33;;;;;;;7.90;5.93;;;9.70;99.90;;;;;;5014830;28;20942;-68
2024/02/01 07:58:38;;;;;;;13.03;6.80;;;9.80;99.90;;;;;;5018645;28;20518;-70
2024/02/01 08:01:14;;;;;;;12.00;7.00;;;9.90;99.90;;;;;;5013984;28;20536;-69
2024/02/01 08:03:55;;;;;;;10.57;7.13;;;9.90;99.90;;;;;;5010917;28;20443;-68
2024/02/01 08:09:11;;;;;;;13.40;7.53;;;9.90;99.90;;;;;;5012931;28;20443;-69
2024/02/01 08:11:38;;;;;;;12.40;7.07;;;9.90;99.90;;;;;;5013409;28;20449;-68
2024/02/01 08:14:06;;;;;;;9.10;7.07;;;9.90;99.90;;;;;;5012784;28;20539;-68
2024/02/01 08:16:32;;;;;;;8.03;6.63;;;9.90;99.90;;;;;;5016095;28;20526;-69
2024/02/01 08:18:59;;;;;;;12.00;7.80;;;9.80;99.90;;;;;;5015176;28;20563;-69
2024/02/01 08:21:26;;;;;;;10.47;7.50;;;9.90;99.90;;;;;;5012991;28;20192;-68
2024/02/01 08:23:54;;;;;;;8.70;6.60;;;9.80;99.90;;;;;;5005690;28;21078;-68
2024/02/01 08:26:21;;;;;;;10.00;6.93;;;9.90;99.90;;;;;;5019346;28;20422;-68
2024/02/01 08:28:47;;;;;;;12.90;7.30;;;9.70;99.90;;;;;;5012198;28;20876;-70
2024/02/01 08:31:17;;;;;;;15.10;7.30;;;9.70;99.90;;;;;;5012760;28;20525;-69
2024/02/01 08:33:44;;;;;;;9.10;6.90;;;9.80;99.90;;;;;;5021512;28;20456;-68
2024/02/01 08:36:20;;;;;;;8.87;6.47;;;9.80;99.90;;;;;;5021494;28;20438;-68
2024/02/01 08:38:45;;;;;;;9.17;6.20;;;9.80;99.90;;;;;;5012619;28;20479;-68
2024/02/01 08:41:11;;;;;;;11.70;6.80;;;9.70;99.90;;;;;;5020644;28;20981;-68
2024/02/01 08:43:40;;;;;;;9.03;6.50;;;9.80;99.90;;;;;;5020027;28;20223;-68
2024/02/01 08:46:06;;;;;;;13.67;8.37;;;9.80;99.90;;;;;;5016271;28;20443;-68
2024/02/01 08:48:31;;;;;;;10.30;7.40;;;9.80;99.90;;;;;;5020635;28;21011;-68
2024/02/01 08:50:58;;;;;;;12.40;8.57;;;10.00;99.90;;;;;;5018991;28;20205;-68
2024/02/01 08:53:23;;;;;;;12.53;8.47;;;10.00;99.90;;;;;;5017556;28;20291;-69
2024/02/01 08:55:52;;;;;;;10.00;7.87;;;9.90;99.90;;;;;;5016634;28;20518;-68
2024/02/01 08:58:18;;;;;;;11.60;8.90;;;9.90;99.90;;;;;;5013676;28;20212;-68
2024/02/01 09:00:44;;;;;;;12.87;8.17;;;10.10;99.90;;;;;;5014341;28;21138;-68
2024/02/01 09:03:15;;;;;;;14.80;10.70;;;10.10;99.90;;;;;;5020293;28;20411;-68
2024/02/01 09:05:43;;;;;;;14.00;9.43;;;10.10;99.90;;;;;;5012661;28;20428;-69
2024/02/01 09:08:08;;;;;;;13.13;9.17;;;10.20;99.90;;;;;;5018014;28;20430;-68
2024/02/01 09:10:35;;;;;;;13.37;9.43;;;10.20;99.90;;;;;;5017119;28;20622;-68
2024/02/01 09:13:01;;;;;;;16.60;9.73;;;10.20;99.90;;;;;;5015790;28;20197;-69
2024/02/01 09:15:27;;;;;;;14.80;10.13;;;10.20;99.90;;;;;;5022190;28;20446;-69
2024/02/01 09:17:56;;;;;;;15.93;9.83;;;10.10;99.90;;;;;;5017401;28;20431;-70
2024/02/01 09:20:22;;;;;;;15.57;10.37;;;10.20;99.90;;;;;;5015216;28;20483;-69
2024/02/01 09:22:58;;;;;;;11.60;9.27;;;10.20;99.90;;;;;;5015606;28;20431;-69
2024/02/01 09:25:24;;;;;;;14.60;10.17;;;10.30;99.90;;;;;;5014640;28;20454;-69
2024/02/01 09:27:51;;;;;;;14.23;10.20;;;10.30;99.90;;;;;;5008151;28;21450;-69
2024/02/01 09:30:19;;;;;;;13.63;9.30;;;10.30;99.90;;;;;;5013014;28;20415;-68
2024/02/01 09:32:53;;;;;;;13.10;9.40;;;10.30;99.90;;;;;;5011512;28;20458;-69
2024/02/01 09:35:20;;;;;;;11.97;9.27;;;10.30;99.90;;;;;;5013288;28;20537;-69
2024/02/01 09:37:55;;;;;;;11.37;8.83;;;10.30;99.90;;;;;;5010942;28;20416;-69
2024/02/01 09:40:22;;;;;;;12.93;9.23;;;10.20;99.90;;;;;;5012013;28;20887;-68
2024/02/01 09:42:50;;;;;;;12.70;10.00;;;10.30;99.90;;;;;;5012476;28;20419;-70
2024/02/01 09:45:20;;;;;;;16.57;9.70;;;10.40;99.90;;;;;;5020013;28;20941;-69
2024/02/01 09:47:48;;;;;;;15.07;8.83;;;10.40;99.90;;;;;;5011410;28;20482;-70
2024/02/01 09:50:20;;;;;;;12.00;8.70;;;10.40;99.90;;;;;;5015250;28;20449;-70
2024/02/01 09:52:51;;;;;;;14.40;8.97;;;10.40;99.90;;;;;;5014447;28;20419;-71
2024/02/01 09:55:18;;;;;;;15.07;8.43;;;10.40;99.90;;;;;;5016706;28;20447;-70
2024/02/01 09:57:52;;;;;;;11.43;8.10;;;10.40;99.90;;;;;;5015397;28;20422;-70
2024/02/01 10:00:19;;;;;;;10.73;8.00;;;10.40;99.90;;;;;;5009669;28;20483;-69
2024/02/01 10:02:46;;;;;;;12.70;8.63;;;10.40;99.90;;;;;;5013242;28;20465;-70
2024/02/01 10:05:12;;;;;;;14.60;8.60;;;10.50;99.90;;;;;;5012478;28;20441;-70
2024/02/01 10:07:38;;;;;;;12.40;7.90;;;10.50;99.90;;;;;;5011747;28;20467;-70
2024/02/01 10:10:05;;;;;;;8.53;7.50;;;10.50;99.90;;;;;;5013231;28;20463;-70
2024/02/01 10:12:34;;;;;;;9.43;8.40;;;10.50;99.90;;;;;;5015511;28;20686;-71
2024/02/01 10:15:08;;;;;;;11.00;8.50;;;10.50;99.90;;;;;;5015015;28;20565;-70
2024/02/01 10:17:45;;;;;;;16.23;8.83;;;10.50;99.90;;;;;;5017765;28;20958;-70
2024/02/01 10:20:33;;;;;;;10.63;8.73;;;10.50;99.90;;;;;;5017620;28;20470;-70
2024/02/01 10:23:03;;;;;;;12.10;8.30;;;10.50;99.90;;;;;;5010674;28;20431;-70
2024/02/01 10:25:33;;;;;;;10.50;8.20;;;10.50;99.90;;;;;;5011223;28;20473;-70
2024/02/01 10:28:06;;;;;;;12.83;9.10;;;10.60;99.90;;;;;;5014649;28;20440;-70
2024/02/01 10:30:33;;;;;;;10.87;9.20;;;10.50;99.90;;;;;;5014737;28;20833;-70
2024/02/01 10:33:09;;;;;;;15.57;9.63;;;10.50;99.90;;;;;;5013493;28;20461;-70
2024/02/01 10:35:38;;;;;;;14.90;8.40;;;10.50;99.90;;;;;;5018257;28;20438;-70
2024/02/01 10:38:12;;;;;;;13.53;8.90;;;10.60;99.90;;;;;;5012634;28;20444;-70
2024/02/01 10:40:58;;;;;;;16.37;9.70;;;10.60;99.90;;;;;;5011498;28;20920;-69
2024/02/01 10:43:33;;;;;;;13.20;9.47;;;10.70;99.90;;;;;;5013516;28;20426;-70
2024/02/01 10:46:06;;;;;;;12.90;8.50;;;10.80;99.90;;;;;;5013671;28;20427;-69
2024/02/01 10:49:02;;;;;;;13.30;9.97;;;10.80;99.90;;;;;;5010396;28;20521;-70
2024/02/01 10:51:29;;;;;;;10.90;9.30;;;10.90;99.90;;;;;;5010477;28;20448;-71
2024/02/01 10:53:56;;;;;;;12.43;8.40;;;10.90;99.90;;;;;;5011145;28;20450;-70
2024/02/01 10:56:22;;;;;;;14.77;8.87;;;10.90;99.90;;;;;;5016135;28;20521;-70
2024/02/01 10:58:51;;;;;;;13.27;9.53;;;11.00;99.90;;;;;;5017746;28;21024;-70
2024/02/01 11:01:25;;;;;;;12.67;8.73;;;11.00;99.90;;;;;;5012014;28;20179;-69
2024/02/01 11:03:53;;;;;;;13.07;9.90;;;11.00;99.90;;;;;;5010716;28;20455;-69
2024/02/01 11:06:19;;;;;;;10.77;8.80;;;10.90;99.90;;;;;;5014672;28;20431;-70
2024/02/01 11:08:47;;;;;;;10.80;8.30;;;10.90;99.90;;;;;;5014136;28;20427;-70
2024/02/01 11:11:16;;;;;;;12.57;8.60;;;11.00;99.90;;;;;;5014586;28;20415;-70
2024/02/01 11:14:11;;;;;;;11.03;8.53;;;11.00;99.90;;;;;;5014442;28;20522;-69
2024/02/01 11:16:39;;;;;;;11.53;8.57;;;11.00;99.90;;;;;;5017423;28;21117;-69
2024/02/01 11:19:13;;;;;;;13.03;8.80;;;10.90;99.90;;;;;;5008703;28;20454;-70
2024/02/01 11:21:47;;;;;;;12.33;9.20;;;11.00;99.90;;;;;;5009721;28;20486;-71
2024/02/01 11:24:16;;;;;;;14.50;8.77;;;11.00;99.90;;;;;;5015925;28;20458;-70
2024/02/01 11:26:45;;;;;;;14.73;9.70;;;10.90;99.90;;;;;;5013740;28;20514;-70
2024/02/01 11:29:12;;;;;;;11.10;9.07;;;11.00;99.90;;;;;;5017368;28;20470;-70
2024/02/01 11:31:44;;;;;;;12.43;9.13;;;11.10;99.90;;;;;;5013169;28;20443;-70
2024/02/01 11:34:10;;;;;;;10.27;8.20;;;11.10;99.90;;;;;;5012933;28;20810;-69
2024/02/01 11:36:37;;;;;;;15.40;9.37;;;11.20;99.90;;;;;;5012792;28;20431;-69
2024/02/01 11:39:03;;;;;;;13.30;9.17;;;11.30;99.90;;;;;;5018599;28;20986;-69
2024/02/01 11:41:30;;;;;;;9.33;7.80;;;11.30;99.90;;;;;;5012497;28;20412;-69
2024/02/01 11:43:57;;;;;;;9.63;7.43;;;11.40;99.90;;;;;;5013817;28;20201;-70
2024/02/01 11:46:24;;;;;;;12.07;9.00;;;11.30;99.90;;;;;;5013768;28;20534;-69
2024/02/01 11:48:49;;;;;;;11.90;9.07;;;11.30;99.90;;;;;;5013503;28;20501;-70
2024/02/01 11:51:16;;;;;;;15.60;9.83;;;11.30;99.90;;;;;;5015250;28;20439;-69
2024/02/01 11:53:41;;;;;;;11.90;8.57;;;11.40;99.90;;;;;;5013856;28;20204;-69
2024/02/01 11:56:07;;;;;;;11.97;9.90;;;11.50;99.90;;;;;;5012023;28;20440;-70
2024/02/01 11:58:34;;;;;;;11.40;8.40;;;11.40;99.90;;;;;;5014742;28;20232;-69
2024/02/01 12:00:59;;;;;;;12.33;9.20;;;11.40;99.90;;;;;;5014269;28;20638;-70
2024/02/01 12:03:37;;;;;;;11.40;9.47;;;11.30;99.90;;;;;;5012830;28;20450;-70
2024/02/01 12:06:04;;;;;;;13.13;10.00;;;11.30;99.90;;;;;;5019284;28;20215;-70
2024/02/01 12:08:31;;;;;;;12.37;9.40;;;11.30;99.90;;;;;;5018525;28;20514;-70
2024/02/01 12:10:59;;;;;;;10.67;8.70;;;11.40;99.90;;;;;;5018931;28;20474;-70
2024/02/01 12:13:25;;;;;;;11.33;9.77;;;11.50;99.90;;;;;;5018290;28;20458;-70
2024/02/01 12:15:53;;;;;;;10.03;8.27;;;11.50;99.90;;;;;;5013244;28;20612;-70
2024/02/01 12:18:19;;;;;;;13.63;8.67;;;11.40;99.90;;;;;;5014577;28;20181;-68
2024/02/01 12:20:48;;;;;;;11.33;9.47;;;11.50;99.90;;;;;;5018607;28;20430;-69
2024/02/01 12:23:14;;;;;;;12.90;10.00;;;11.50;99.90;;;;;;5017323;28;20415;-70
2024/02/01 12:25:45;;;;;;;13.50;9.33;;;11.50;99.90;;;;;;5016348;28;21070;-70
2024/02/01 12:28:11;;;;;;;14.37;10.13;;;11.50;99.90;;;;;;5015823;28;20431;-70
2024/02/01 12:30:43;;;;;;;14.70;10.60;;;11.50;99.90;;;;;;5015767;28;20427;-70
2024/02/01 12:33:12;;;;;;;11.20;8.40;;;11.50;99.90;;;;;;5020294;28;20267;-70
2024/02/01 12:35:39;;;;;;;11.33;8.57;;;11.40;99.90;;;;;;5018876;28;20439;-70
2024/02/01 12:38:06;;;;;;;12.30;10.90;;;11.40;99.90;;;;;;5020408;28;20429;-70
2024/02/01 12:40:32;;;;;;;13.70;9.73;;;11.30;99.90;;;;;;5016791;28;20462;-70
2024/02/01 12:43:01;;;;;;;12.93;9.00;;;11.20;99.90;;;;;;5015699;28;20434;-70
2024/02/01 12:45:27;;;;;;;11.63;9.50;;;11.30;99.90;;;;;;5013983;28;20423;-70
2024/02/01 12:47:53;;;;;;;9.93;8.57;;;11.30;99.90;;;;;;5018074;28;20925;-67
2024/02/01 12:50:20;;;;;;;11.73;9.57;;;11.30;99.90;;;;;;5026800;28;20435;-67
2024/02/01 12:52:46;;;;;;;12.03;9.77;;;11.40;99.90;;;;;;5021863;28;20187;-67
2024/02/01 12:55:12;;;;;;;13.30;10.43;;;11.30;99.90;;;;;;5024800;28;20535;-67
2024/02/01 12:57:40;;;;;;;13.10;9.93;;;11.30;99.90;;;;;;5029633;28;20422;-67
2024/02/01 13:00:07;;;;;;;12.37;9.77;;;11.20;99.90;;;;;;5024134;28;20466;-67
2024/02/01 13:02:34;;;;;;;12.20;10.60;;;11.10;99.90;;;;;;5027955;28;20420;-67
2024/02/01 13:04:59;;;;;;;13.50;11.10;;;11.10;99.90;;;;;;5027057;28;20447;-67
2024/02/01 13:07:25;;;;;;;12.53;10.53;;;11.10;99.90;;;;;;5022660;28;20428;-67
2024/02/01 13:09:51;;;;;;;16.27;12.10;;;11.30;99.90;;;;;;5020728;28;20191;-67
2024/02/01 13:12:21;;;;;;;13.93;10.80;;;11.30;99.90;;;;;;5020845;28;20183;-67
2024/02/01 13:14:59;;;;;;;13.13;11.23;;;11.20;99.90;;;;;;5014178;28;20592;-67
2024/02/01 13:17:30;;;;;;;13.60;10.07;;;11.40;99.90;;;;;;5016263;28;20989;-66
2024/02/01 13:19:56;;;;;;;12.17;9.50;;;11.40;99.90;;;;;;5018782;28;20466;-66
2024/02/01 13:22:25;;;;;;;16.83;11.27;;;11.40;99.90;;;;;;5016779;28;20544;-66
2024/02/01 13:24:51;;;;;;;13.60;11.30;;;11.40;99.90;;;;;;5016021;28;20592;-67
2024/02/01 13:27:17;;;;;;;12.83;11.23;;;11.30;99.90;;;;;;5015965;28;20435;-67